首页
METAR-TAF:

METAR-TAF

机场 :

Chièvres, 比利时

纬度: 50-34N, 经度: 003-50E, 海拔: 60米

当前天气观测

该预报发布于26分钟前的08:25 UTC
风速8节,风向西北
温度 8°C
湿度 66%
气压 1017 hPa
能见度10公里或以上

METAR: EBCV 030825Z AUTO 31008KT 9999 BKN060/// 08/02 Q1017 BLU

时间: 10:51 (08:51 UTC)

预报

该预报发布于3小时和10分钟前的05:41 UTC
预报有效从03日的 07点(UTC)到 03日的 16点(UTC)
风速6节,风向西
能见度10公里或以上
少量云层高于3500英尺
成为
从 03日的 09点(UTC)到 03日的 11点(UTC)
风速8节,风向西转西北
少量云层高于3500英尺
多云层高于4500英尺

TAF: EBCV 030541Z 0307/0316 27006KT 9999 FEW035 BECMG 0309/0311 30008KT FEW035 BKN045 BY EBWM

超过4000个机场的气象观测和天气预报(METAR&TAF报告)。

可查询的气象台以黄色和红色小点在地图上表示。

将鼠标移到小点上方,可查看气象台名称。

然后点击查看天气观测和预报。

如需切换地图:点击带黑十字的绿色按钮放大地图;点击带横线的绿色按钮缩小地图;或者点击绿色箭头查看邻近地区的地图。


METAR-TAF: